sensor_id;sensor_type;location;lat;lon;timestamp;temperature;humidity
9437;DHT22;4757;59.334;18.034;2023-09-30T00:02:02;15.30;99.90
9437;DHT22;4757;59.334;18.034;2023-09-30T00:04:31;15.30;99.90
9437;DHT22;4757;59.334;18.034;2023-09-30T00:06:59;16.10;99.90
9437;DHT22;4757;59.334;18.034;2023-09-30T00:09:26;15.40;99.90
9437;DHT22;4757;59.334;18.034;2023-09-30T00:11:55;15.40;99.90
9437;DHT22;4757;59.334;18.034;2023-09-30T00:14:22;15.30;99.90
9437;DHT22;4757;59.334;18.034;2023-09-30T00:16:50;15.40;99.90
9437;DHT22;4757;59.334;18.034;2023-09-30T00:19:17;15.40;99.90
9437;DHT22;4757;59.334;18.034;2023-09-30T00:21:45;15.40;99.90
9437;DHT22;4757;59.334;18.034;2023-09-30T00:24:12;15.40;99.90
9437;DHT22;4757;59.334;18.034;2023-09-30T00:26:40;15.40;99.90
9437;DHT22;4757;59.334;18.034;2023-09-30T00:29:09;15.40;99.90
9437;DHT22;4757;59.334;18.034;2023-09-30T00:31:37;15.40;99.90
9437;DHT22;4757;59.334;18.034;2023-09-30T00:34:05;15.40;99.90
9437;DHT22;4757;59.334;18.034;2023-09-30T00:36:32;15.50;99.90
9437;DHT22;4757;59.334;18.034;2023-09-30T00:39:00;14.70;99.90
9437;DHT22;4757;59.334;18.034;2023-09-30T00:41:27;15.40;99.90
9437;DHT22;4757;59.334;18.034;2023-09-30T00:43:54;15.40;99.90
9437;DHT22;4757;59.334;18.034;2023-09-30T00:48:49;15.50;99.90
9437;DHT22;4757;59.334;18.034;2023-09-30T00:51:17;15.50;99.90
9437;DHT22;4757;59.334;18.034;2023-09-30T00:53:44;15.40;99.90
9437;DHT22;4757;59.334;18.034;2023-09-30T00:56:12;15.40;99.90
9437;DHT22;4757;59.334;18.034;2023-09-30T00:58:40;15.40;99.90
9437;DHT22;4757;59.334;18.034;2023-09-30T01:01:09;15.40;99.90
9437;DHT22;4757;59.334;18.034;2023-09-30T01:03:37;15.40;99.90
9437;DHT22;4757;59.334;18.034;2023-09-30T01:06:07;15.40;99.90
9437;DHT22;4757;59.334;18.034;2023-09-30T01:08:34;15.70;99.90
9437;DHT22;4757;59.334;18.034;2023-09-30T01:11:02;15.40;99.90
9437;DHT22;4757;59.334;18.034;2023-09-30T01:13:33;15.40;99.90
9437;DHT22;4757;59.334;18.034;2023-09-30T01:16:09;15.40;99.90
9437;DHT22;4757;59.334;18.034;2023-09-30T01:18:38;15.40;99.90
9437;DHT22;4757;59.334;18.034;2023-09-30T01:21:06;15.40;99.90
9437;DHT22;4757;59.334;18.034;2023-09-30T01:23:35;15.40;99.90
9437;DHT22;4757;59.334;18.034;2023-09-30T01:26:03;15.40;99.90
9437;DHT22;4757;59.334;18.034;2023-09-30T01:28:32;15.40;99.90
9437;DHT22;4757;59.334;18.034;2023-09-30T01:31:00;15.30;99.90
9437;DHT22;4757;59.334;18.034;2023-09-30T01:33:27;15.30;99.90
9437;DHT22;4757;59.334;18.034;2023-09-30T01:35:55;15.20;99.90
9437;DHT22;4757;59.334;18.034;2023-09-30T01:38:23;15.20;99.90
9437;DHT22;4757;59.334;18.034;2023-09-30T01:40:52;15.10;99.90
9437;DHT22;4757;59.334;18.034;2023-09-30T01:43:24;15.10;99.90
9437;DHT22;4757;59.334;18.034;2023-09-30T01:45:51;15.10;99.90
9437;DHT22;4757;59.334;18.034;2023-09-30T01:48:19;15.10;99.90
9437;DHT22;4757;59.334;18.034;2023-09-30T01:50:47;14.70;99.90
9437;DHT22;4757;59.334;18.034;2023-09-30T01:53:15;15.10;99.90
9437;DHT22;4757;59.334;18.034;2023-09-30T01:55:42;15.10;99.90
9437;DHT22;4757;59.334;18.034;2023-09-30T01:58:11;15.00;99.90
9437;DHT22;4757;59.334;18.034;2023-09-30T02:00:40;14.90;99.90
9437;DHT22;4757;59.334;18.034;2023-09-30T02:03:09;14.80;99.90
9437;DHT22;4757;59.334;18.034;2023-09-30T02:05:38;14.60;99.90
9437;DHT22;4757;59.334;18.034;2023-09-30T02:08:07;14.50;99.90
9437;DHT22;4757;59.334;18.034;2023-09-30T02:10:35;14.50;99.90
9437;DHT22;4757;59.334;18.034;2023-09-30T02:13:02;14.40;99.90
9437;DHT22;4757;59.334;18.034;2023-09-30T02:15:33;14.40;99.90
9437;DHT22;4757;59.334;18.034;2023-09-30T02:18:02;14.30;99.90
9437;DHT22;4757;59.334;18.034;2023-09-30T02:20:31;14.30;99.90
9437;DHT22;4757;59.334;18.034;2023-09-30T02:23:16;14.30;99.90
9437;DHT22;4757;59.334;18.034;2023-09-30T02:25:45;14.30;99.90
9437;DHT22;4757;59.334;18.034;2023-09-30T02:28:12;14.30;99.90
9437;DHT22;4757;59.334;18.034;2023-09-30T02:30:40;14.70;99.90
9437;DHT22;4757;59.334;18.034;2023-09-30T02:33:09;14.20;99.90
9437;DHT22;4757;59.334;18.034;2023-09-30T02:35:51;14.10;99.90
9437;DHT22;4757;59.334;18.034;2023-09-30T02:38:19;14.10;99.90
9437;DHT22;4757;59.334;18.034;2023-09-30T02:40:48;14.00;99.90
9437;DHT22;4757;59.334;18.034;2023-09-30T02:43:19;13.70;99.90
9437;DHT22;4757;59.334;18.034;2023-09-30T02:45:50;14.00;99.90
9437;DHT22;4757;59.334;18.034;2023-09-30T02:48:18;13.80;99.90
9437;DHT22;4757;59.334;18.034;2023-09-30T02:50:46;13.90;99.90
9437;DHT22;4757;59.334;18.034;2023-09-30T02:53:14;13.80;99.90
9437;DHT22;4757;59.334;18.034;2023-09-30T02:55:42;13.60;99.90
9437;DHT22;4757;59.334;18.034;2023-09-30T02:58:10;13.70;99.90
9437;DHT22;4757;59.334;18.034;2023-09-30T03:00:39;14.20;99.90
9437;DHT22;4757;59.334;18.034;2023-09-30T03:03:10;13.70;99.90
9437;DHT22;4757;59.334;18.034;2023-09-30T03:05:44;13.70;99.90
9437;DHT22;4757;59.334;18.034;2023-09-30T03:08:13;13.60;99.90
9437;DHT22;4757;59.334;18.034;2023-09-30T03:10:41;13.60;99.90
9437;DHT22;4757;59.334;18.034;2023-09-30T03:13:08;13.60;99.90
9437;DHT22;4757;59.334;18.034;2023-09-30T03:15:37;13.60;99.90
9437;DHT22;4757;59.334;18.034;2023-09-30T03:18:05;13.60;99.90
9437;DHT22;4757;59.334;18.034;2023-09-30T03:20:33;13.70;99.90
9437;DHT22;4757;59.334;18.034;2023-09-30T03:23:01;13.70;99.90
9437;DHT22;4757;59.334;18.034;2023-09-30T03:25:29;13.70;99.90
9437;DHT22;4757;59.334;18.034;2023-09-30T03:27:58;13.70;99.90
9437;DHT22;4757;59.334;18.034;2023-09-30T03:30:26;13.80;99.90
9437;DHT22;4757;59.334;18.034;2023-09-30T03:32:55;13.80;99.90
9437;DHT22;4757;59.334;18.034;2023-09-30T03:35:25;13.80;99.90
9437;DHT22;4757;59.334;18.034;2023-09-30T03:37:53;13.80;99.90
9437;DHT22;4757;59.334;18.034;2023-09-30T03:40:20;13.80;99.90
9437;DHT22;4757;59.334;18.034;2023-09-30T03:42:55;13.80;99.90
9437;DHT22;4757;59.334;18.034;2023-09-30T03:45:22;13.80;99.90
9437;DHT22;4757;59.334;18.034;2023-09-30T03:47:52;13.80;99.90
9437;DHT22;4757;59.334;18.034;2023-09-30T03:50:19;13.90;99.90
9437;DHT22;4757;59.334;18.034;2023-09-30T03:52:50;13.90;99.90
9437;DHT22;4757;59.334;18.034;2023-09-30T03:55:18;13.80;99.90
9437;DHT22;4757;59.334;18.034;2023-09-30T03:57:48;13.80;99.90
9437;DHT22;4757;59.334;18.034;2023-09-30T04:00:16;13.80;99.90
9437;DHT22;4757;59.334;18.034;2023-09-30T04:02:51;13.80;99.90
9437;DHT22;4757;59.334;18.034;2023-09-30T04:05:25;13.80;99.90
9437;DHT22;4757;59.334;18.034;2023-09-30T04:07:56;13.80;99.90
9437;DHT22;4757;59.334;18.034;2023-09-30T04:10:23;13.80;99.90
9437;DHT22;4757;59.334;18.034;2023-09-30T04:12:51;13.80;99.90
9437;DHT22;4757;59.334;18.034;2023-09-30T04:15:19;13.70;99.90
9437;DHT22;4757;59.334;18.034;2023-09-30T04:17:50;13.80;99.90
9437;DHT22;4757;59.334;18.034;2023-09-30T04:20:18;13.70;99.90
9437;DHT22;4757;59.334;18.034;2023-09-30T04:22:50;13.70;99.90
9437;DHT22;4757;59.334;18.034;2023-09-30T04:25:18;13.70;99.90
9437;DHT22;4757;59.334;18.034;2023-09-30T04:27:46;13.60;99.90
9437;DHT22;4757;59.334;18.034;2023-09-30T04:30:16;13.50;99.90
9437;DHT22;4757;59.334;18.034;2023-09-30T04:32:44;13.60;99.90
9437;DHT22;4757;59.334;18.034;2023-09-30T04:35:12;13.50;99.90
9437;DHT22;4757;59.334;18.034;2023-09-30T04:37:39;13.50;99.90
9437;DHT22;4757;59.334;18.034;2023-09-30T04:40:08;13.40;99.90
9437;DHT22;4757;59.334;18.034;2023-09-30T04:42:49;13.40;99.90
9437;DHT22;4757;59.334;18.034;2023-09-30T04:45:16;13.40;99.90
9437;DHT22;4757;59.334;18.034;2023-09-30T04:47:47;13.40;99.90
9437;DHT22;4757;59.334;18.034;2023-09-30T04:50:17;13.30;99.90
9437;DHT22;4757;59.334;18.034;2023-09-30T04:52:45;13.30;99.90
9437;DHT22;4757;59.334;18.034;2023-09-30T04:55:14;13.20;99.90
9437;DHT22;4757;59.334;18.034;2023-09-30T04:57:44;13.20;99.90
9437;DHT22;4757;59.334;18.034;2023-09-30T05:00:17;13.20;99.90
9437;DHT22;4757;59.334;18.034;2023-09-30T05:02:45;13.20;99.90
9437;DHT22;4757;59.334;18.034;2023-09-30T05:05:13;12.10;99.90
9437;DHT22;4757;59.334;18.034;2023-09-30T05:07:42;13.10;99.90
9437;DHT22;4757;59.334;18.034;2023-09-30T05:10:10;13.10;99.90
9437;DHT22;4757;59.334;18.034;2023-09-30T05:12:40;13.10;99.90
9437;DHT22;4757;59.334;18.034;2023-09-30T05:15:14;13.10;99.90
9437;DHT22;4757;59.334;18.034;2023-09-30T05:17:44;13.10;99.90
9437;DHT22;4757;59.334;18.034;2023-09-30T05:20:12;13.10;99.90
9437;DHT22;4757;59.334;18.034;2023-09-30T05:22:40;13.10;99.90
9437;DHT22;4757;59.334;18.034;2023-09-30T05:25:13;13.00;99.90
9437;DHT22;4757;59.334;18.034;2023-09-30T05:27:44;13.10;99.90
9437;DHT22;4757;59.334;18.034;2023-09-30T05:30:12;13.10;99.90
9437;DHT22;4757;59.334;18.034;2023-09-30T05:32:42;13.10;99.90
9437;DHT22;4757;59.334;18.034;2023-09-30T05:35:10;12.30;99.90
9437;DHT22;4757;59.334;18.034;2023-09-30T05:37:41;13.10;99.90
9437;DHT22;4757;59.334;18.034;2023-09-30T05:40:11;12.40;99.90
9437;DHT22;4757;59.334;18.034;2023-09-30T05:42:58;13.10;99.90
9437;DHT22;4757;59.334;18.034;2023-09-30T05:45:27;13.20;99.90
9437;DHT22;4757;59.334;18.034;2023-09-30T05:47:58;13.20;99.90
9437;DHT22;4757;59.334;18.034;2023-09-30T05:50:29;13.20;99.90
9437;DHT22;4757;59.334;18.034;2023-09-30T05:52:58;13.20;99.90
9437;DHT22;4757;59.334;18.034;2023-09-30T05:55:25;13.10;99.90
9437;DHT22;4757;59.334;18.034;2023-09-30T05:57:53;13.10;99.90
9437;DHT22;4757;59.334;18.034;2023-09-30T06:00:25;13.20;99.90
9437;DHT22;4757;59.334;18.034;2023-09-30T06:02:58;13.10;99.90
9437;DHT22;4757;59.334;18.034;2023-09-30T06:05:27;13.20;99.90
9437;DHT22;4757;59.334;18.034;2023-09-30T06:08:01;13.20;99.90
9437;DHT22;4757;59.334;18.034;2023-09-30T06:10:42;13.20;99.90
9437;DHT22;4757;59.334;18.034;2023-09-30T06:13:11;13.20;99.90
9437;DHT22;4757;59.334;18.034;2023-09-30T06:15:42;13.20;99.90
9437;DHT22;4757;59.334;18.034;2023-09-30T06:18:11;13.10;99.90
9437;DHT22;4757;59.334;18.034;2023-09-30T06:20:41;13.20;99.90
9437;DHT22;4757;59.334;18.034;2023-09-30T06:23:09;13.20;99.90
9437;DHT22;4757;59.334;18.034;2023-09-30T06:25:37;13.30;99.90
9437;DHT22;4757;59.334;18.034;2023-09-30T06:28:04;13.30;99.90
9437;DHT22;4757;59.334;18.034;2023-09-30T06:30:31;13.30;99.90
9437;DHT22;4757;59.334;18.034;2023-09-30T06:33:04;14.20;99.90
9437;DHT22;4757;59.334;18.034;2023-09-30T06:35:32;13.30;99.90
9437;DHT22;4757;59.334;18.034;2023-09-30T06:38:07;13.30;99.90
9437;DHT22;4757;59.334;18.034;2023-09-30T06:40:34;13.30;99.90
9437;DHT22;4757;59.334;18.034;2023-09-30T06:43:07;13.40;99.90
9437;DHT22;4757;59.334;18.034;2023-09-30T06:45:36;13.40;99.90
9437;DHT22;4757;59.334;18.034;2023-09-30T06:48:10;13.50;99.90
9437;DHT22;4757;59.334;18.034;2023-09-30T06:50:44;13.50;99.90
9437;DHT22;4757;59.334;18.034;2023-09-30T06:53:12;13.50;99.90
9437;DHT22;4757;59.334;18.034;2023-09-30T06:55:40;13.50;99.90
9437;DHT22;4757;59.334;18.034;2023-09-30T06:58:07;13.00;99.90
9437;DHT22;4757;59.334;18.034;2023-09-30T07:00:38;13.60;99.90
9437;DHT22;4757;59.334;18.034;2023-09-30T07:03:07;13.60;99.90
9437;DHT22;4757;59.334;18.034;2023-09-30T07:05:40;13.40;99.90
9437;DHT22;4757;59.334;18.034;2023-09-30T07:08:07;13.60;99.90
9437;DHT22;4757;59.334;18.034;2023-09-30T07:10:35;13.60;99.90
9437;DHT22;4757;59.334;18.034;2023-09-30T07:13:03;13.60;99.90
9437;DHT22;4757;59.334;18.034;2023-09-30T07:15:32;13.60;99.90
9437;DHT22;4757;59.334;18.034;2023-09-30T07:18:04;13.70;99.90
9437;DHT22;4757;59.334;18.034;2023-09-30T07:20:32;13.70;99.90
9437;DHT22;4757;59.334;18.034;2023-09-30T07:23:00;13.70;99.90
9437;DHT22;4757;59.334;18.034;2023-09-30T07:25:46;13.80;99.90
9437;DHT22;4757;59.334;18.034;2023-09-30T07:28:14;13.60;99.90
9437;DHT22;4757;59.334;18.034;2023-09-30T07:30:49;13.00;99.90
9437;DHT22;4757;59.334;18.034;2023-09-30T07:33:18;13.90;99.90
9437;DHT22;4757;59.334;18.034;2023-09-30T07:35:46;14.00;99.90
9437;DHT22;4757;59.334;18.034;2023-09-30T07:38:13;14.10;99.90
9437;DHT22;4757;59.334;18.034;2023-09-30T07:40:44;14.20;99.90
9437;DHT22;4757;59.334;18.034;2023-09-30T07:43:12;14.20;99.90
9437;DHT22;4757;59.334;18.034;2023-09-30T07:45:44;14.10;99.90
9437;DHT22;4757;59.334;18.034;2023-09-30T07:48:12;14.20;99.90
9437;DHT22;4757;59.334;18.034;2023-09-30T07:50:54;14.20;99.90
9437;DHT22;4757;59.334;18.034;2023-09-30T07:53:35;14.40;99.90
9437;DHT22;4757;59.334;18.034;2023-09-30T07:56:08;14.40;99.90
9437;DHT22;4757;59.334;18.034;2023-09-30T07:58:39;14.40;99.90
9437;DHT22;4757;59.334;18.034;2023-09-30T08:01:08;14.50;99.90
9437;DHT22;4757;59.334;18.034;2023-09-30T08:03:38;14.50;99.90
9437;DHT22;4757;59.334;18.034;2023-09-30T08:06:07;14.50;99.90
9437;DHT22;4757;59.334;18.034;2023-09-30T08:08:44;14.70;99.90
9437;DHT22;4757;59.334;18.034;2023-09-30T08:11:23;14.70;99.90
9437;DHT22;4757;59.334;18.034;2023-09-30T08:13:54;14.80;99.90
9437;DHT22;4757;59.334;18.034;2023-09-30T08:16:22;14.80;99.90
9437;DHT22;4757;59.334;18.034;2023-09-30T08:18:49;14.90;99.90
9437;DHT22;4757;59.334;18.034;2023-09-30T08:21:17;14.80;99.90
9437;DHT22;4757;59.334;18.034;2023-09-30T08:23:51;14.80;99.90
9437;DHT22;4757;59.334;18.034;2023-09-30T08:26:30;14.90;99.90
9437;DHT22;4757;59.334;18.034;2023-09-30T08:28:59;14.90;99.90
9437;DHT22;4757;59.334;18.034;2023-09-30T08:31:30;14.90;99.90
9437;DHT22;4757;59.334;18.034;2023-09-30T08:34:12;14.80;99.90
9437;DHT22;4757;59.334;18.034;2023-09-30T08:36:44;14.90;99.90
9437;DHT22;4757;59.334;18.034;2023-09-30T08:39:13;15.00;99.90
9437;DHT22;4757;59.334;18.034;2023-09-30T08:41:44;15.00;99.90
9437;DHT22;4757;59.334;18.034;2023-09-30T08:44:16;15.20;99.90
9437;DHT22;4757;59.334;18.034;2023-09-30T08:46:46;15.10;99.90
9437;DHT22;4757;59.334;18.034;2023-09-30T08:49:20;15.20;99.90
9437;DHT22;4757;59.334;18.034;2023-09-30T08:52:02;15.20;99.90
9437;DHT22;4757;59.334;18.034;2023-09-30T08:54:45;15.30;99.90
9437;DHT22;4757;59.334;18.034;2023-09-30T08:57:36;15.40;99.90
9437;DHT22;4757;59.334;18.034;2023-09-30T09:04:38;15.30;99.90
9437;DHT22;4757;59.334;18.034;2023-09-30T09:07:09;15.50;99.90
9437;DHT22;4757;59.334;18.034;2023-09-30T09:09:39;15.10;99.90
9437;DHT22;4757;59.334;18.034;2023-09-30T09:12:19;15.50;99.90
9437;DHT22;4757;59.334;18.034;2023-09-30T09:14:46;15.50;99.90
9437;DHT22;4757;59.334;18.034;2023-09-30T09:17:14;15.50;99.90
9437;DHT22;4757;59.334;18.034;2023-09-30T09:19:43;15.40;99.90
9437;DHT22;4757;59.334;18.034;2023-09-30T09:22:11;15.40;99.90
9437;DHT22;4757;59.334;18.034;2023-09-30T09:24:38;15.40;99.90
9437;DHT22;4757;59.334;18.034;2023-09-30T09:27:07;15.40;99.90
9437;DHT22;4757;59.334;18.034;2023-09-30T09:29:38;15.50;99.90
9437;DHT22;4757;59.334;18.034;2023-09-30T09:32:17;15.50;99.90
9437;DHT22;4757;59.334;18.034;2023-09-30T09:35:00;15.50;99.90
9437;DHT22;4757;59.334;18.034;2023-09-30T09:37:28;15.50;99.90
9437;DHT22;4757;59.334;18.034;2023-09-30T09:40:01;15.60;99.90
9437;DHT22;4757;59.334;18.034;2023-09-30T09:42:31;15.70;99.90
9437;DHT22;4757;59.334;18.034;2023-09-30T09:45:04;15.80;99.90
9437;DHT22;4757;59.334;18.034;2023-09-30T09:47:35;15.90;99.90
9437;DHT22;4757;59.334;18.034;2023-09-30T09:50:05;16.00;99.90
9437;DHT22;4757;59.334;18.034;2023-09-30T09:52:51;16.00;99.90
9437;DHT22;4757;59.334;18.034;2023-09-30T09:55:21;16.00;99.90
9437;DHT22;4757;59.334;18.034;2023-09-30T09:57:51;15.90;99.90
9437;DHT22;4757;59.334;18.034;2023-09-30T10:00:24;15.80;99.90
9437;DHT22;4757;59.334;18.034;2023-09-30T10:02:52;15.80;99.90
9437;DHT22;4757;59.334;18.034;2023-09-30T10:05:20;15.80;99.90
9437;DHT22;4757;59.334;18.034;2023-09-30T10:08:01;15.90;99.90
9437;DHT22;4757;59.334;18.034;2023-09-30T10:10:30;15.90;99.90
9437;DHT22;4757;59.334;18.034;2023-09-30T10:13:02;15.60;99.90
9437;DHT22;4757;59.334;18.034;2023-09-30T10:18:03;15.50;99.90
9437;DHT22;4757;59.334;18.034;2023-09-30T10:20:42;16.00;99.90
9437;DHT22;4757;59.334;18.034;2023-09-30T10:23:29;16.20;99.90
9437;DHT22;4757;59.334;18.034;2023-09-30T10:28:45;16.50;99.90
9437;DHT22;4757;59.334;18.034;2023-09-30T10:31:21;16.60;99.90
9437;DHT22;4757;59.334;18.034;2023-09-30T10:36:36;16.60;99.90
9437;DHT22;4757;59.334;18.034;2023-09-30T10:39:12;16.60;99.90
9437;DHT22;4757;59.334;18.034;2023-09-30T10:41:48;16.40;99.90
9437;DHT22;4757;59.334;18.034;2023-09-30T10:46:58;16.50;99.90
9437;DHT22;4757;59.334;18.034;2023-09-30T10:49:49;16.40;99.90
9437;DHT22;4757;59.334;18.034;2023-09-30T10:52:25;16.30;99.90
9437;DHT22;4757;59.334;18.034;2023-09-30T10:58:13;15.70;99.90
9437;DHT22;4757;59.334;18.034;2023-09-30T11:00:55;15.60;99.90
9437;DHT22;4757;59.334;18.034;2023-09-30T11:03:46;15.50;99.90
9437;DHT22;4757;59.334;18.034;2023-09-30T11:06:16;15.40;99.90
9437;DHT22;4757;59.334;18.034;2023-09-30T11:08:53;14.80;99.90
9437;DHT22;4757;59.334;18.034;2023-09-30T11:14:22;15.50;99.90
9437;DHT22;4757;59.334;18.034;2023-09-30T11:17:00;15.60;99.90
9437;DHT22;4757;59.334;18.034;2023-09-30T11:19:47;15.80;99.90
9437;DHT22;4757;59.334;18.034;2023-09-30T11:22:15;15.80;99.90
9437;DHT22;4757;59.334;18.034;2023-09-30T11:24:43;15.90;99.90
9437;DHT22;4757;59.334;18.034;2023-09-30T11:27:24;15.70;99.90
9437;DHT22;4757;59.334;18.034;2023-09-30T11:29:54;15.80;99.90
9437;DHT22;4757;59.334;18.034;2023-09-30T11:32:27;15.80;99.90
9437;DHT22;4757;59.334;18.034;2023-09-30T11:35:10;15.90;99.90
9437;DHT22;4757;59.334;18.034;2023-09-30T11:38:00;15.90;99.90
9437;DHT22;4757;59.334;18.034;2023-09-30T11:40:37;15.90;99.90
9437;DHT22;4757;59.334;18.034;2023-09-30T11:43:09;16.00;99.90
9437;DHT22;4757;59.334;18.034;2023-09-30T11:45:42;16.10;99.90
9437;DHT22;4757;59.334;18.034;2023-09-30T11:48:31;16.00;99.90
9437;DHT22;4757;59.334;18.034;2023-09-30T11:51:01;16.00;99.90
9437;DHT22;4757;59.334;18.034;2023-09-30T11:53:35;16.00;99.90
9437;DHT22;4757;59.334;18.034;2023-09-30T11:56:28;16.10;99.90
9437;DHT22;4757;59.334;18.034;2023-09-30T11:59:02;16.30;99.90
9437;DHT22;4757;59.334;18.034;2023-09-30T12:01:32;16.30;99.90
9437;DHT22;4757;59.334;18.034;2023-09-30T12:04:01;16.40;99.90
9437;DHT22;4757;59.334;18.034;2023-09-30T12:06:40;16.30;99.90
9437;DHT22;4757;59.334;18.034;2023-09-30T12:09:18;16.50;99.90
9437;DHT22;4757;59.334;18.034;2023-09-30T12:11:58;16.50;99.90
9437;DHT22;4757;59.334;18.034;2023-09-30T12:14:29;16.50;99.90
9437;DHT22;4757;59.334;18.034;2023-09-30T12:17:20;16.60;99.90
9437;DHT22;4757;59.334;18.034;2023-09-30T12:19:55;16.90;99.90
9437;DHT22;4757;59.334;18.034;2023-09-30T12:28:17;16.90;99.90
9437;DHT22;4757;59.334;18.034;2023-09-30T12:30:51;17.50;99.90
9437;DHT22;4757;59.334;18.034;2023-09-30T12:33:30;18.50;99.90
9437;DHT22;4757;59.334;18.034;2023-09-30T12:36:02;18.80;99.90
9437;DHT22;4757;59.334;18.034;2023-09-30T12:38:32;18.90;99.90
9437;DHT22;4757;59.334;18.034;2023-09-30T12:40:59;19.00;99.90
9437;DHT22;4757;59.334;18.034;2023-09-30T12:43:33;18.90;99.90
9437;DHT22;4757;59.334;18.034;2023-09-30T12:46:06;18.40;99.90
9437;DHT22;4757;59.334;18.034;2023-09-30T12:48:48;18.60;99.90
9437;DHT22;4757;59.334;18.034;2023-09-30T12:51:19;19.20;99.90
9437;DHT22;4757;59.334;18.034;2023-09-30T12:53:49;19.70;99.90
9437;DHT22;4757;59.334;18.034;2023-09-30T12:56:17;19.70;99.90
9437;DHT22;4757;59.334;18.034;2023-09-30T12:58:45;19.70;99.90
9437;DHT22;4757;59.334;18.034;2023-09-30T13:01:29;19.00;99.90
9437;DHT22;4757;59.334;18.034;2023-09-30T13:04:02;17.80;99.90
9437;DHT22;4757;59.334;18.034;2023-09-30T13:06:36;17.30;99.90
9437;DHT22;4757;59.334;18.034;2023-09-30T13:09:10;16.70;99.90
9437;DHT22;4757;59.334;18.034;2023-09-30T13:11:47;17.60;99.90
9437;DHT22;4757;59.334;18.034;2023-09-30T13:14:17;16.70;99.90
9437;DHT22;4757;59.334;18.034;2023-09-30T13:16:48;16.70;99.90
9437;DHT22;4757;59.334;18.034;2023-09-30T13:19:20;16.80;99.90
9437;DHT22;4757;59.334;18.034;2023-09-30T13:21:49;16.70;99.90
9437;DHT22;4757;59.334;18.034;2023-09-30T13:24:20;16.60;99.90
9437;DHT22;4757;59.334;18.034;2023-09-30T13:26:49;16.70;99.90
9437;DHT22;4757;59.334;18.034;2023-09-30T13:29:20;16.70;99.90
9437;DHT22;4757;59.334;18.034;2023-09-30T13:31:49;16.70;99.90
9437;DHT22;4757;59.334;18.034;2023-09-30T13:34:16;16.70;99.90
9437;DHT22;4757;59.334;18.034;2023-09-30T13:36:44;16.70;99.90
9437;DHT22;4757;59.334;18.034;2023-09-30T13:39:11;16.70;99.90
9437;DHT22;4757;59.334;18.034;2023-09-30T13:41:40;16.80;99.90
9437;DHT22;4757;59.334;18.034;2023-09-30T13:44:08;16.70;99.90
9437;DHT22;4757;59.334;18.034;2023-09-30T13:46:35;16.70;99.90
9437;DHT22;4757;59.334;18.034;2023-09-30T13:49:05;16.70;99.90
9437;DHT22;4757;59.334;18.034;2023-09-30T13:51:32;16.70;99.90
9437;DHT22;4757;59.334;18.034;2023-09-30T13:53:59;16.70;99.90
9437;DHT22;4757;59.334;18.034;2023-09-30T13:56:27;16.60;99.90
9437;DHT22;4757;59.334;18.034;2023-09-30T13:58:56;16.70;99.90
9437;DHT22;4757;59.334;18.034;2023-09-30T14:01:26;16.70;99.90
9437;DHT22;4757;59.334;18.034;2023-09-30T14:03:54;16.80;99.90
9437;DHT22;4757;59.334;18.034;2023-09-30T14:06:23;16.70;99.90
9437;DHT22;4757;59.334;18.034;2023-09-30T14:08:50;16.70;99.90
9437;DHT22;4757;59.334;18.034;2023-09-30T14:11:17;16.60;99.90
9437;DHT22;4757;59.334;18.034;2023-09-30T14:13:44;16.50;99.90
9437;DHT22;4757;59.334;18.034;2023-09-30T14:16:12;16.50;99.90
9437;DHT22;4757;59.334;18.034;2023-09-30T14:18:39;16.60;99.90
9437;DHT22;4757;59.334;18.034;2023-09-30T14:21:07;16.60;99.90
9437;DHT22;4757;59.334;18.034;2023-09-30T14:23:34;16.50;99.90
9437;DHT22;4757;59.334;18.034;2023-09-30T14:26:04;16.50;99.90
9437;DHT22;4757;59.334;18.034;2023-09-30T14:28:38;16.50;99.90
9437;DHT22;4757;59.334;18.034;2023-09-30T14:31:05;16.50;99.90
9437;DHT22;4757;59.334;18.034;2023-09-30T14:33:32;16.40;99.90
9437;DHT22;4757;59.334;18.034;2023-09-30T14:36:01;16.40;99.90
9437;DHT22;4757;59.334;18.034;2023-09-30T14:38:29;16.30;99.90
9437;DHT22;4757;59.334;18.034;2023-09-30T14:40:56;16.20;99.90
9437;DHT22;4757;59.334;18.034;2023-09-30T14:43:23;16.30;99.90
9437;DHT22;4757;59.334;18.034;2023-09-30T14:45:50;16.30;99.90
9437;DHT22;4757;59.334;18.034;2023-09-30T14:48:17;16.20;99.90
9437;DHT22;4757;59.334;18.034;2023-09-30T14:50:49;16.20;99.90
9437;DHT22;4757;59.334;18.034;2023-09-30T14:53:16;16.20;99.90
9437;DHT22;4757;59.334;18.034;2023-09-30T14:55:45;16.20;99.90
9437;DHT22;4757;59.334;18.034;2023-09-30T14:58:12;16.20;99.90
9437;DHT22;4757;59.334;18.034;2023-09-30T15:00:40;16.10;99.90
9437;DHT22;4757;59.334;18.034;2023-09-30T15:03:08;16.10;99.90
9437;DHT22;4757;59.334;18.034;2023-09-30T15:05:35;16.00;99.90
9437;DHT22;4757;59.334;18.034;2023-09-30T15:08:02;16.00;99.90
9437;DHT22;4757;59.334;18.034;2023-09-30T15:10:30;16.00;99.90
9437;DHT22;4757;59.334;18.034;2023-09-30T15:13:05;16.00;99.90
9437;DHT22;4757;59.334;18.034;2023-09-30T15:15:38;15.90;99.90
9437;DHT22;4757;59.334;18.034;2023-09-30T15:18:11;16.00;99.90
9437;DHT22;4757;59.334;18.034;2023-09-30T15:20:43;14.90;99.90
9437;DHT22;4757;59.334;18.034;2023-09-30T15:23:48;15.90;99.90
9437;DHT22;4757;59.334;18.034;2023-09-30T15:30:12;15.90;99.90
9437;DHT22;4757;59.334;18.034;2023-09-30T15:33:04;15.80;99.90
9437;DHT22;4757;59.334;18.034;2023-09-30T15:35:43;15.80;99.90
9437;DHT22;4757;59.334;18.034;2023-09-30T15:38:10;15.80;99.90
9437;DHT22;4757;59.334;18.034;2023-09-30T15:40:58;15.80;99.90
9437;DHT22;4757;59.334;18.034;2023-09-30T15:43:25;15.70;99.90
9437;DHT22;4757;59.334;18.034;2023-09-30T15:45:55;15.70;99.90
9437;DHT22;4757;59.334;18.034;2023-09-30T15:48:24;15.60;99.90
9437;DHT22;4757;59.334;18.034;2023-09-30T15:50:56;15.30;99.90
9437;DHT22;4757;59.334;18.034;2023-09-30T15:53:28;15.90;99.90
9437;DHT22;4757;59.334;18.034;2023-09-30T15:56:03;15.60;99.90
9437;DHT22;4757;59.334;18.034;2023-09-30T15:58:35;15.60;99.90
9437;DHT22;4757;59.334;18.034;2023-09-30T16:01:03;15.70;99.90
9437;DHT22;4757;59.334;18.034;2023-09-30T16:03:33;15.50;99.90
9437;DHT22;4757;59.334;18.034;2023-09-30T16:06:06;15.60;99.90
9437;DHT22;4757;59.334;18.034;2023-09-30T16:14:04;15.50;99.90
9437;DHT22;4757;59.334;18.034;2023-09-30T16:16:36;14.40;99.90
9437;DHT22;4757;59.334;18.034;2023-09-30T16:19:06;15.50;99.90
9437;DHT22;4757;59.334;18.034;2023-09-30T16:21:36;15.40;99.90
9437;DHT22;4757;59.334;18.034;2023-09-30T16:24:06;15.40;99.90
9437;DHT22;4757;59.334;18.034;2023-09-30T16:26:37;14.40;99.90
9437;DHT22;4757;59.334;18.034;2023-09-30T16:29:06;15.30;99.90
9437;DHT22;4757;59.334;18.034;2023-09-30T16:34:26;14.00;99.90
9437;DHT22;4757;59.334;18.034;2023-09-30T16:36:59;15.20;99.90
9437;DHT22;4757;59.334;18.034;2023-09-30T16:39:31;15.20;99.90
9437;DHT22;4757;59.334;18.034;2023-09-30T16:42:00;15.20;99.90
9437;DHT22;4757;59.334;18.034;2023-09-30T16:44:27;14.90;99.90
9437;DHT22;4757;59.334;18.034;2023-09-30T16:46:55;15.10;99.90
9437;DHT22;4757;59.334;18.034;2023-09-30T16:49:24;15.10;99.90
9437;DHT22;4757;59.334;18.034;2023-09-30T16:51:57;15.10;99.90